createdAt,value
2017-12-13T00:02:20.695Z,93.87
2017-12-13T00:04:47.047Z,91.67
2017-12-13T00:07:13.408Z,84.63
2017-12-13T00:09:39.809Z,80.07
2017-12-13T00:12:06.173Z,84.70
2017-12-13T00:14:32.660Z,68.87
2017-12-13T00:16:59.279Z,63.83
2017-12-13T00:19:25.616Z,65.77
2017-12-13T00:21:51.928Z,56.80
2017-12-13T00:24:18.298Z,59.93
2017-12-13T00:26:44.625Z,65.10
2017-12-13T00:29:10.949Z,69.50
2017-12-13T00:31:37.304Z,67.00
2017-12-13T00:34:03.718Z,65.47
2017-12-13T00:36:30.085Z,64.57
2017-12-13T00:38:56.539Z,66.37
2017-12-13T00:41:22.868Z,63.50
2017-12-13T00:43:49.193Z,63.87
2017-12-13T00:46:15.659Z,63.37
2017-12-13T00:48:42.024Z,64.03
2017-12-13T00:51:08.351Z,60.57
2017-12-13T00:53:34.752Z,58.07
2017-12-13T00:56:01.182Z,59.63
2017-12-13T00:58:27.550Z,55.40
2017-12-13T01:00:53.924Z,53.13
2017-12-13T01:03:20.300Z,50.80
2017-12-13T01:05:46.675Z,47.60
2017-12-13T01:08:13.080Z,44.53
2017-12-13T01:10:39.452Z,47.70
2017-12-13T01:13:05.795Z,45.43
2017-12-13T01:15:32.175Z,43.10
2017-12-13T01:17:58.509Z,47.20
2017-12-13T01:20:24.934Z,49.30
2017-12-13T01:22:51.312Z,47.83
2017-12-13T01:25:17.628Z,44.60
2017-12-13T01:27:43.980Z,48.80
2017-12-13T01:30:10.585Z,46.10
2017-12-13T01:32:36.977Z,45.33
2017-12-13T01:35:03.316Z,42.77
2017-12-13T01:37:29.707Z,40.83
2017-12-13T01:39:56.036Z,41.93
2017-12-13T01:42:22.372Z,40.53
2017-12-13T01:44:48.765Z,42.57
2017-12-13T01:47:15.092Z,42.70
2017-12-13T01:49:41.464Z,40.40
2017-12-13T01:52:07.850Z,37.47
2017-12-13T01:54:34.192Z,33.50
2017-12-13T01:57:00.585Z,37.57
2017-12-13T01:59:27.032Z,38.33
2017-12-13T02:01:53.449Z,38.87
2017-12-13T02:04:19.883Z,38.37
2017-12-13T02:06:46.315Z,39.03
2017-12-13T02:09:12.774Z,39.20
2017-12-13T02:11:39.285Z,36.40
2017-12-13T02:14:05.736Z,38.57
2017-12-13T02:16:32.079Z,38.23
2017-12-13T02:18:58.443Z,44.47
2017-12-13T02:21:24.851Z,44.57
2017-12-13T02:23:51.246Z,41.60
2017-12-13T02:26:17.596Z,45.67
2017-12-13T02:28:43.983Z,40.90
2017-12-13T02:31:10.309Z,40.70
2017-12-13T02:33:36.632Z,41.53
2017-12-13T02:36:03.020Z,45.37
2017-12-13T02:38:29.399Z,43.13
2017-12-13T02:41:00.743Z,41.17
2017-12-13T02:43:27.128Z,45.53
2017-12-13T02:45:53.463Z,39.33
2017-12-13T02:48:19.778Z,44.33
2017-12-13T02:50:46.280Z,47.50
2017-12-13T02:53:12.724Z,48.43
2017-12-13T02:55:39.288Z,45.60
2017-12-13T02:58:05.819Z,47.57
2017-12-13T03:00:32.237Z,45.17
2017-12-13T03:02:58.624Z,41.30
2017-12-13T03:05:25.092Z,45.90
2017-12-13T03:07:51.502Z,43.47
2017-12-13T03:10:17.912Z,38.47
2017-12-13T03:12:44.327Z,38.60
2017-12-13T03:15:10.737Z,35.77
2017-12-13T03:17:37.300Z,40.13
2017-12-13T03:20:03.748Z,34.33
2017-12-13T03:22:30.180Z,38.17
2017-12-13T03:24:56.539Z,42.63
2017-12-13T03:27:22.916Z,40.20
2017-12-13T03:29:49.244Z,35.60
2017-12-13T03:32:15.600Z,34.97
2017-12-13T03:34:41.984Z,31.70
2017-12-13T03:37:08.347Z,39.13
2017-12-13T03:39:34.693Z,36.63
2017-12-13T03:42:01.087Z,33.07
2017-12-13T03:44:27.407Z,32.70
2017-12-13T03:46:53.792Z,30.90
2017-12-13T03:49:20.199Z,37.37
2017-12-13T03:51:46.540Z,38.47
2017-12-13T03:54:12.844Z,33.23
2017-12-13T03:56:39.208Z,40.40
2017-12-13T03:59:05.540Z,33.73
2017-12-13T04:01:31.891Z,32.67
2017-12-13T04:03:58.269Z,32.30
2017-12-13T04:06:24.617Z,36.07
2017-12-13T04:08:50.980Z,35.17
2017-12-13T04:11:17.356Z,30.50
2017-12-13T04:13:43.680Z,32.47
2017-12-13T04:16:10.010Z,35.17
2017-12-13T04:18:36.415Z,37.83
2017-12-13T04:21:03.747Z,34.60
2017-12-13T04:23:30.092Z,38.50
2017-12-13T04:25:56.519Z,37.80
2017-12-13T04:28:22.928Z,38.80
2017-12-13T04:30:49.257Z,37.93
2017-12-13T04:33:15.692Z,41.90
2017-12-13T04:35:42.016Z,42.87
2017-12-13T04:38:08.331Z,41.00
2017-12-13T04:40:34.787Z,42.57
2017-12-13T04:43:01.147Z,40.50
2017-12-13T04:45:27.476Z,45.00
2017-12-13T04:47:53.854Z,46.37
2017-12-13T04:50:20.172Z,46.50
2017-12-13T04:52:46.500Z,45.07
2017-12-13T04:55:12.893Z,44.97
2017-12-13T04:57:39.212Z,45.90
2017-12-13T05:00:05.563Z,42.50
2017-12-13T05:02:32.072Z,39.40
2017-12-13T05:04:58.384Z,38.27
2017-12-13T05:07:24.757Z,36.50
2017-12-13T05:09:51.208Z,42.53
2017-12-13T05:12:17.599Z,43.70
2017-12-13T05:14:43.959Z,45.33
2017-12-13T05:17:10.420Z,51.47
2017-12-13T05:19:36.791Z,49.50
2017-12-13T05:22:03.307Z,52.83
2017-12-13T05:24:29.704Z,70.57
2017-12-13T05:26:56.235Z,69.03
2017-12-13T05:29:22.600Z,65.97
2017-12-13T05:31:48.988Z,48.03
2017-12-13T05:34:15.364Z,63.10
2017-12-13T05:36:41.704Z,68.23
2017-12-13T05:39:08.076Z,108.97
2017-12-13T05:41:34.408Z,108.97
2017-12-13T05:44:00.765Z,82.27
2017-12-13T05:46:27.175Z,92.40
2017-12-13T05:48:53.499Z,79.03
2017-12-13T05:51:19.831Z,72.57
2017-12-13T05:53:46.350Z,70.60
2017-12-13T05:56:12.680Z,79.53
2017-12-13T05:58:38.993Z,78.40
2017-12-13T06:01:05.403Z,71.57
2017-12-13T06:03:31.760Z,67.97
2017-12-13T06:05:58.123Z,81.07
2017-12-13T06:08:24.642Z,88.70
2017-12-13T06:10:50.980Z,87.57
2017-12-13T06:13:17.407Z,95.03
2017-12-13T06:15:44.056Z,100.93
2017-12-13T06:18:10.505Z,104.90
2017-12-13T06:20:36.872Z,102.07
2017-12-13T06:23:03.329Z,96.60
2017-12-13T06:25:29.716Z,90.90
2017-12-13T06:27:56.045Z,90.93
2017-12-13T06:30:22.412Z,91.57
2017-12-13T06:32:48.752Z,90.97
2017-12-13T06:35:15.368Z,111.10
2017-12-13T06:37:41.880Z,109.60
2017-12-13T06:40:08.292Z,85.90
2017-12-13T06:42:34.635Z,93.07
2017-12-13T06:45:01.048Z,95.43
2017-12-13T06:47:27.439Z,96.73
2017-12-13T06:49:53.984Z,96.20
2017-12-13T06:52:20.442Z,109.57
2017-12-13T06:54:46.760Z,106.23
2017-12-13T06:57:13.103Z,95.13
2017-12-13T06:59:39.464Z,98.43
2017-12-13T07:02:05.996Z,96.27
2017-12-13T07:04:32.371Z,101.60
2017-12-13T07:06:58.912Z,105.13
2017-12-13T07:09:25.248Z,126.63
2017-12-13T07:11:51.705Z,143.47
2017-12-13T07:14:18.097Z,157.90
2017-12-13T07:16:44.436Z,148.90
2017-12-13T07:19:10.776Z,152.43
2017-12-13T07:21:37.273Z,161.97
2017-12-13T07:24:03.613Z,162.90
2017-12-13T07:26:29.967Z,162.60
2017-12-13T07:28:56.359Z,166.27
2017-12-13T07:31:22.759Z,147.03
2017-12-13T07:33:49.173Z,149.30
2017-12-13T07:36:15.564Z,134.87
2017-12-13T07:38:42.369Z,134.03
2017-12-13T07:41:09.004Z,122.47
2017-12-13T07:43:35.456Z,113.10
2017-12-13T07:46:01.856Z,167.10
2017-12-13T07:48:28.201Z,142.67
2017-12-13T07:50:54.588Z,157.73
2017-12-13T07:53:20.915Z,187.23
2017-12-13T07:55:47.235Z,169.13
2017-12-13T07:58:13.670Z,107.10
2017-12-13T08:00:40.036Z,151.87
2017-12-13T08:03:06.443Z,144.63
2017-12-13T08:05:32.867Z,139.97
2017-12-13T08:07:59.213Z,155.07
2017-12-13T08:10:25.608Z,160.67
2017-12-13T08:12:51.999Z,164.30
2017-12-13T08:15:18.353Z,172.80
2017-12-13T08:17:44.684Z,164.30
2017-12-13T08:20:11.113Z,182.97
2017-12-13T08:22:37.546Z,169.07
2017-12-13T08:25:04.016Z,126.90
2017-12-13T08:27:30.700Z,148.03
2017-12-13T08:29:57.035Z,180.13
2017-12-13T08:32:23.392Z,152.73
2017-12-13T08:34:49.846Z,157.40
2017-12-13T08:37:16.231Z,121.83
2017-12-13T08:39:42.586Z,105.33
2017-12-13T08:42:09.119Z,103.43
2017-12-13T08:44:35.488Z,87.20
2017-12-13T08:47:01.861Z,71.43
2017-12-13T08:49:28.236Z,76.23
2017-12-13T08:51:54.753Z,72.00
2017-12-13T08:54:21.123Z,70.40
2017-12-13T08:56:47.579Z,67.13
2017-12-13T08:59:13.900Z,73.57
2017-12-13T09:01:40.296Z,85.47
2017-12-13T09:04:06.893Z,74.33
2017-12-13T09:06:33.301Z,75.77
2017-12-13T09:08:59.655Z,65.17
2017-12-13T09:11:26.184Z,64.17
2017-12-13T09:13:52.584Z,67.20
2017-12-13T09:16:19.012Z,66.53
2017-12-13T09:18:45.555Z,62.10
2017-12-13T09:21:11.918Z,64.20
2017-12-13T09:23:38.472Z,56.90
2017-12-13T09:26:04.991Z,60.47
2017-12-13T09:28:31.556Z,60.27
2017-12-13T09:30:58.296Z,55.50
2017-12-13T09:33:24.748Z,59.50
2017-12-13T09:35:51.152Z,58.93
2017-12-13T09:38:17.519Z,72.20
2017-12-13T09:40:43.952Z,56.90
2017-12-13T09:43:10.294Z,62.60
2017-12-13T09:45:36.692Z,65.50
2017-12-13T09:48:03.119Z,54.30
2017-12-13T09:50:29.561Z,52.60
2017-12-13T09:52:55.968Z,47.43
2017-12-13T09:55:22.385Z,41.33
2017-12-13T09:57:48.805Z,37.83
2017-12-13T10:00:15.224Z,42.30
2017-12-13T10:02:41.909Z,40.40
2017-12-13T10:05:09.617Z,35.47
2017-12-13T10:07:36.104Z,31.93
2017-12-13T10:10:02.548Z,30.20
2017-12-13T10:12:28.945Z,30.87
2017-12-13T10:14:55.504Z,27.67
2017-12-13T10:17:21.937Z,27.97
2017-12-13T10:19:48.292Z,30.13
2017-12-13T10:22:14.726Z,34.80
2017-12-13T10:24:41.375Z,27.40
2017-12-13T10:27:07.818Z,27.77
2017-12-13T10:29:34.173Z,28.97
2017-12-13T10:32:00.740Z,31.00
2017-12-13T10:34:27.200Z,28.07
2017-12-13T10:36:53.583Z,24.93
2017-12-13T10:39:20.029Z,24.40
2017-12-13T10:41:46.360Z,29.90
2017-12-13T10:44:12.712Z,26.13
2017-12-13T10:46:39.104Z,25.60
2017-12-13T10:49:05.428Z,22.80
2017-12-13T10:51:31.773Z,24.57
2017-12-13T10:53:58.257Z,29.70
2017-12-13T10:56:24.793Z,21.47
2017-12-13T10:58:51.177Z,25.90
2017-12-13T11:01:17.680Z,24.80
2017-12-13T11:03:44.132Z,25.03
2017-12-13T11:06:10.628Z,30.87
2017-12-13T11:08:37.044Z,28.53
2017-12-13T11:11:03.699Z,27.37
2017-12-13T11:13:30.188Z,22.40
2017-12-13T11:15:56.648Z,21.50
2017-12-13T11:18:23.102Z,26.43
2017-12-13T11:20:49.456Z,25.43
2017-12-13T11:23:15.873Z,26.40
2017-12-13T11:25:42.330Z,29.00
2017-12-13T11:28:08.762Z,37.50
2017-12-13T11:30:35.199Z,24.80
2017-12-13T11:33:01.615Z,28.50
2017-12-13T11:35:28.052Z,28.63
2017-12-13T11:37:54.720Z,29.07
2017-12-13T11:40:21.122Z,26.27
2017-12-13T11:42:47.516Z,33.57
2017-12-13T11:45:13.916Z,26.03
2017-12-13T11:47:40.301Z,22.70
2017-12-13T11:50:06.707Z,22.40
2017-12-13T11:52:33.116Z,23.80
2017-12-13T11:54:59.551Z,23.53
2017-12-13T11:57:25.970Z,17.90
2017-12-13T11:59:52.524Z,17.23
2017-12-13T12:02:18.931Z,19.43
2017-12-13T12:04:45.375Z,18.97
2017-12-13T12:07:11.876Z,20.20
2017-12-13T12:09:38.488Z,21.70
2017-12-13T12:12:04.975Z,23.43
2017-12-13T12:14:31.373Z,19.87
2017-12-13T12:16:57.781Z,23.50
2017-12-13T12:19:24.176Z,23.80
2017-12-13T12:21:50.648Z,22.87
2017-12-13T12:24:17.004Z,24.47
2017-12-13T12:26:43.409Z,21.40
2017-12-13T12:29:09.800Z,24.13
2017-12-13T12:31:36.200Z,23.20
2017-12-13T12:34:02.588Z,27.80
2017-12-13T12:36:29.056Z,28.07
2017-12-13T12:38:55.500Z,33.60
2017-12-13T12:41:22.119Z,29.00
2017-12-13T12:43:48.576Z,28.53
2017-12-13T12:46:15.007Z,21.03
2017-12-13T12:48:41.371Z,22.30
2017-12-13T12:51:07.775Z,26.67
2017-12-13T12:53:34.381Z,29.53
2017-12-13T12:56:00.739Z,29.03
2017-12-13T12:58:27.275Z,35.00
2017-12-13T13:00:53.660Z,34.60
2017-12-13T13:03:20.004Z,30.73
2017-12-13T13:05:46.403Z,30.33
2017-12-13T13:08:12.779Z,29.70
2017-12-13T13:10:39.237Z,31.33
2017-12-13T13:13:05.677Z,30.23
2017-12-13T13:15:32.102Z,32.30
2017-12-13T13:17:58.567Z,30.73
2017-12-13T13:20:25.175Z,27.07
2017-12-13T13:22:51.635Z,24.83
2017-12-13T13:25:18.023Z,28.10
2017-12-13T13:27:44.644Z,31.83
2017-12-13T13:30:11.317Z,31.83
2017-12-13T13:32:37.854Z,30.40
2017-12-13T13:35:04.388Z,40.23
2017-12-13T13:37:30.751Z,39.37
2017-12-13T13:39:57.460Z,32.93
2017-12-13T13:42:23.884Z,29.83
2017-12-13T13:44:50.240Z,32.20
2017-12-13T13:47:16.632Z,41.13
2017-12-13T13:49:43.047Z,49.50
2017-12-13T13:52:09.419Z,52.67
2017-12-13T13:54:35.855Z,58.43
2017-12-13T13:57:02.237Z,61.77
2017-12-13T13:59:28.695Z,45.43
2017-12-13T14:01:55.109Z,34.40
2017-12-13T14:04:21.485Z,41.80
2017-12-13T14:06:47.852Z,42.60
2017-12-13T14:09:14.227Z,42.90
2017-12-13T14:11:40.613Z,42.17
2017-12-13T14:14:06.992Z,40.20
2017-12-13T14:16:33.363Z,71.53
2017-12-13T14:18:59.763Z,78.37
2017-12-13T14:21:26.156Z,88.93
2017-12-13T14:23:52.563Z,81.63
2017-12-13T14:26:19.185Z,78.10
2017-12-13T14:28:45.663Z,161.07
2017-12-13T14:31:12.077Z,165.90
2017-12-13T14:33:38.510Z,107.00
2017-12-13T14:36:04.897Z,117.57
2017-12-13T14:38:31.299Z,112.73
2017-12-13T14:40:57.692Z,146.97
2017-12-13T14:43:24.026Z,139.63
2017-12-13T14:45:50.441Z,134.60
2017-12-13T14:48:17.104Z,138.30
2017-12-13T14:50:43.460Z,161.90
2017-12-13T14:53:09.817Z,140.33
2017-12-13T14:55:36.225Z,136.57
2017-12-13T14:58:02.607Z,121.47
2017-12-13T15:00:28.938Z,120.87
2017-12-13T15:02:55.473Z,126.47
2017-12-13T15:05:21.992Z,117.00
2017-12-13T15:07:48.367Z,114.90
2017-12-13T15:10:14.747Z,189.90
2017-12-13T15:12:41.084Z,235.67
2017-12-13T15:15:07.413Z,175.90
2017-12-13T15:17:33.837Z,156.80
2017-12-13T15:20:00.380Z,133.03
2017-12-13T15:22:27.665Z,104.70
2017-12-13T15:24:54.029Z,112.87
2017-12-13T15:27:20.528Z,93.50
2017-12-13T15:29:46.865Z,101.17
2017-12-13T15:32:13.248Z,99.80
2017-12-13T15:34:39.962Z,108.23
2017-12-13T15:37:06.463Z,104.93
2017-12-13T15:39:33.068Z,129.17
2017-12-13T15:41:59.499Z,99.50
2017-12-13T15:44:25.892Z,130.27
2017-12-13T15:46:52.399Z,117.23
2017-12-13T15:49:18.755Z,124.03
2017-12-13T15:51:45.124Z,88.37
2017-12-13T15:54:11.577Z,105.83
2017-12-13T15:56:39.037Z,95.97
2017-12-13T15:59:05.436Z,108.63
2017-12-13T16:01:33.419Z,101.70
2017-12-13T16:03:59.749Z,106.23
2017-12-13T16:06:27.604Z,112.90
2017-12-13T16:08:54.064Z,102.70
2017-12-13T16:11:20.404Z,104.03
2017-12-13T16:13:46.737Z,117.67
2017-12-13T16:16:13.388Z,100.17
2017-12-13T16:18:40.351Z,100.33
2017-12-13T16:21:06.692Z,86.70
2017-12-13T16:23:33.906Z,98.20
2017-12-13T16:26:00.284Z,114.87
2017-12-13T16:28:27.829Z,127.13
2017-12-13T16:30:54.267Z,126.73
2017-12-13T16:33:20.657Z,124.20
2017-12-13T16:35:47.092Z,140.93
2017-12-13T16:38:15.368Z,134.13
2017-12-13T16:40:41.804Z,135.00
2017-12-13T16:43:08.246Z,103.83
2017-12-13T16:45:34.872Z,128.23
2017-12-13T16:48:01.230Z,127.77
2017-12-13T16:50:27.877Z,120.77
2017-12-13T16:52:54.456Z,97.70
2017-12-13T16:55:20.926Z,93.23
2017-12-13T16:57:47.466Z,132.83
2017-12-13T17:00:14.409Z,142.33
2017-12-13T17:02:41.308Z,139.40
2017-12-13T17:05:07.767Z,143.27
2017-12-13T17:07:34.359Z,149.37
2017-12-13T17:10:00.840Z,132.03
2017-12-13T17:12:27.391Z,138.87
2017-12-13T17:14:53.888Z,145.70
2017-12-13T17:17:20.316Z,152.50
2017-12-13T17:19:46.734Z,139.03
2017-12-13T17:22:13.260Z,157.13
2017-12-13T17:24:39.700Z,145.73
2017-12-13T17:27:06.072Z,160.57
2017-12-13T17:29:32.504Z,166.60
2017-12-13T17:31:58.912Z,185.10
2017-12-13T17:34:26.113Z,170.10
2017-12-13T17:36:52.602Z,179.10
2017-12-13T17:39:18.957Z,202.87
2017-12-13T17:41:45.396Z,193.87
2017-12-13T17:44:11.851Z,187.30
2017-12-13T17:46:38.469Z,207.37
2017-12-13T17:49:04.922Z,212.60
2017-12-13T17:51:31.352Z,208.43
2017-12-13T17:53:58.230Z,240.43
2017-12-13T17:56:24.676Z,243.70
2017-12-13T17:58:51.115Z,248.23
2017-12-13T18:01:17.511Z,261.03
2017-12-13T18:03:44.031Z,244.27
2017-12-13T18:06:10.495Z,262.10
2017-12-13T18:08:36.891Z,286.90
2017-12-13T18:11:03.288Z,314.33
2017-12-13T18:13:29.746Z,342.93
2017-12-13T18:15:56.196Z,293.10
2017-12-13T18:18:22.937Z,416.70
2017-12-13T18:20:49.483Z,429.07
2017-12-13T18:23:15.924Z,453.23
2017-12-13T18:25:42.339Z,472.37
2017-12-13T18:28:08.862Z,482.57
2017-12-13T18:30:35.413Z,474.03
2017-12-13T18:33:01.824Z,495.77
2017-12-13T18:35:28.305Z,525.93
2017-12-13T18:37:54.792Z,522.97
2017-12-13T18:40:21.486Z,510.90
2017-12-13T18:42:47.938Z,500.83
2017-12-13T18:45:14.696Z,494.60
2017-12-13T18:47:41.119Z,492.33
2017-12-13T18:50:07.570Z,461.33
2017-12-13T18:52:33.966Z,445.30
2017-12-13T18:55:00.480Z,367.57
2017-12-13T18:57:27.597Z,335.57
2017-12-13T18:59:54.079Z,320.27
2017-12-13T19:02:20.660Z,314.03
2017-12-13T19:04:47.184Z,295.33
2017-12-13T19:07:13.600Z,266.53
2017-12-13T19:09:40.012Z,272.60
2017-12-13T19:12:06.495Z,258.90
2017-12-13T19:14:32.986Z,265.30
2017-12-13T19:16:59.617Z,236.70
2017-12-13T19:19:26.093Z,179.73
2017-12-13T19:21:53.129Z,157.63
2017-12-13T19:24:20.136Z,137.90
2017-12-13T19:26:47.733Z,139.47
2017-12-13T19:29:14.087Z,133.17
2017-12-13T19:31:40.557Z,121.93
2017-12-13T19:34:07.260Z,132.10
2017-12-13T19:36:33.696Z,126.50
2017-12-13T19:39:00.097Z,129.13
2017-12-13T19:41:26.708Z,127.60
2017-12-13T19:43:53.060Z,125.37
2017-12-13T19:46:19.487Z,141.60
2017-12-13T19:48:45.996Z,150.13
2017-12-13T19:51:12.524Z,143.07
2017-12-13T19:53:38.908Z,159.33
2017-12-13T19:56:05.344Z,161.93
2017-12-13T19:58:31.823Z,177.63
2017-12-13T20:00:58.235Z,201.80
2017-12-13T20:03:24.771Z,203.27
2017-12-13T20:05:51.327Z,197.27
2017-12-13T20:08:18.299Z,183.50
2017-12-13T20:10:44.844Z,177.53
2017-12-13T20:13:11.252Z,174.27
2017-12-13T20:15:37.655Z,172.63
2017-12-13T20:18:04.084Z,162.20
2017-12-13T20:20:30.472Z,155.30
2017-12-13T20:22:57.080Z,182.67
2017-12-13T20:25:23.589Z,171.83
2017-12-13T20:27:49.996Z,159.80
2017-12-13T20:30:16.533Z,136.87
2017-12-13T20:32:42.929Z,126.87
2017-12-13T20:35:09.332Z,124.30
2017-12-13T20:37:35.780Z,133.47
2017-12-13T20:40:02.302Z,167.27
2017-12-13T20:42:28.858Z,152.07
2017-12-13T20:44:55.241Z,149.83
2017-12-13T20:47:21.777Z,190.50
2017-12-13T20:49:49.061Z,187.80
2017-12-13T20:52:15.594Z,168.73
2017-12-13T20:54:42.154Z,160.53
2017-12-13T20:57:08.785Z,174.77
2017-12-13T20:59:35.625Z,165.37
2017-12-13T21:02:02.113Z,176.47
2017-12-13T21:04:28.577Z,167.63
2017-12-13T21:06:54.960Z,173.07
2017-12-13T21:09:21.432Z,165.63
2017-12-13T21:11:47.819Z,133.10
2017-12-13T21:14:14.202Z,122.30
2017-12-13T21:16:40.625Z,118.93
2017-12-13T21:19:07.096Z,108.60
2017-12-13T21:21:33.476Z,106.97
2017-12-13T21:23:59.958Z,113.83
2017-12-13T21:26:26.324Z,102.03
2017-12-13T21:28:52.692Z,96.00
2017-12-13T21:31:19.515Z,91.77
2017-12-13T21:33:45.923Z,88.23
2017-12-13T21:36:12.406Z,84.37
2017-12-13T21:38:38.825Z,84.43
2017-12-13T21:41:05.408Z,86.87
2017-12-13T21:43:31.792Z,82.17
2017-12-13T21:45:58.232Z,92.97
2017-12-13T21:48:24.790Z,86.93
2017-12-13T21:50:51.137Z,86.90
2017-12-13T21:53:17.684Z,102.43
2017-12-13T21:55:44.127Z,101.97
2017-12-13T21:58:10.637Z,96.13
2017-12-13T22:00:37.100Z,97.70
2017-12-13T22:03:03.483Z,94.87
2017-12-13T22:05:30.264Z,87.17
2017-12-13T22:07:56.992Z,95.90
2017-12-13T22:10:23.573Z,92.17
2017-12-13T22:12:50.087Z,94.37
2017-12-13T22:15:16.716Z,93.80
2017-12-13T22:17:43.392Z,93.10
2017-12-13T22:20:09.744Z,94.60
2017-12-13T22:22:36.320Z,93.63
2017-12-13T22:25:02.943Z,100.43
2017-12-13T22:27:29.596Z,91.83
2017-12-13T22:29:56.039Z,98.33
2017-12-13T22:32:22.397Z,97.20
2017-12-13T22:34:48.820Z,105.93
2017-12-13T22:37:15.240Z,88.80
2017-12-13T22:39:41.593Z,102.30
2017-12-13T22:42:08.045Z,111.00
2017-12-13T22:44:34.444Z,107.13
2017-12-13T22:47:00.877Z,101.60
2017-12-13T22:49:27.306Z,106.90
2017-12-13T22:51:53.768Z,108.27
2017-12-13T22:54:20.152Z,112.20
2017-12-13T22:56:46.578Z,110.97
2017-12-13T22:59:13.008Z,107.13
2017-12-13T23:01:39.626Z,113.63
2017-12-13T23:04:06.288Z,110.17
2017-12-13T23:06:32.776Z,114.07
2017-12-13T23:08:59.132Z,112.10
2017-12-13T23:11:25.511Z,114.67
2017-12-13T23:13:52.210Z,117.53
2017-12-13T23:16:18.581Z,107.90
2017-12-13T23:18:44.964Z,101.20
2017-12-13T23:21:11.347Z,92.17
2017-12-13T23:23:37.736Z,95.77
2017-12-13T23:26:04.115Z,95.60
2017-12-13T23:28:30.669Z,88.37
2017-12-13T23:30:57.087Z,81.90
2017-12-13T23:33:23.587Z,76.10
2017-12-13T23:35:50.071Z,75.80
2017-12-13T23:38:16.493Z,71.70
2017-12-13T23:40:42.871Z,75.60
2017-12-13T23:43:09.296Z,76.57
2017-12-13T23:45:35.855Z,76.70
2017-12-13T23:48:02.257Z,72.87
2017-12-13T23:50:28.728Z,69.47
2017-12-13T23:52:55.130Z,71.47
2017-12-13T23:55:21.612Z,65.43
2017-12-13T23:57:48.124Z,66.17
